Andrews, North Carolina
Current Conditions -  °F | °C
As of 10:15 PM on Thursday 18 Dec 2014 (Local Time) from KRHP Reporting Station
Overcast Overcast  
Wind Chill: 40°   Ceiling: 4400
Heat Index: 40°   Visibility: 10mi
Dew Point: 33°   Wind: 3mph
Humidity: 73%   Direction: 310°NW
Pressure: 30.12"   Gusts: NA
Location:  35.2°N, 83.82°W
Report Text: KRHP 190315Z AUTO 31003KT 10SM OVC044 05/00 A3012 RMK AO2 T00470003
Loading
Personal Weather Stations






























Interactive Weather Map New forecast layout! Learn more

10-Day Weather Forecast

Advertisements
Track Severe Weather on mobile